sensor_id;sensor_type;location;lat;lon;timestamp;temperature;humidity
21246;DHT22;10781;50.928;4.440;2023-09-08T00:01:51;22.90;99.90
21246;DHT22;10781;50.928;4.440;2023-09-08T00:04:17;23.00;99.90
21246;DHT22;10781;50.928;4.440;2023-09-08T00:06:45;23.30;99.90
21246;DHT22;10781;50.928;4.440;2023-09-08T00:09:11;23.70;99.90
21246;DHT22;10781;50.928;4.440;2023-09-08T00:11:37;23.90;99.90
21246;DHT22;10781;50.928;4.440;2023-09-08T00:14:02;24.10;99.90
21246;DHT22;10781;50.928;4.440;2023-09-08T00:16:29;24.20;99.90
21246;DHT22;10781;50.928;4.440;2023-09-08T00:18:55;24.00;99.90
21246;DHT22;10781;50.928;4.440;2023-09-08T00:21:22;23.50;99.90
21246;DHT22;10781;50.928;4.440;2023-09-08T00:23:48;23.10;99.90
21246;DHT22;10781;50.928;4.440;2023-09-08T00:26:13;23.20;99.90
21246;DHT22;10781;50.928;4.440;2023-09-08T00:28:39;23.30;99.90
21246;DHT22;10781;50.928;4.440;2023-09-08T00:31:04;23.40;99.90
21246;DHT22;10781;50.928;4.440;2023-09-08T00:33:30;23.70;99.90
21246;DHT22;10781;50.928;4.440;2023-09-08T00:35:56;23.70;99.90
21246;DHT22;10781;50.928;4.440;2023-09-08T00:38:23;23.60;99.90
21246;DHT22;10781;50.928;4.440;2023-09-08T00:40:48;23.40;99.90
21246;DHT22;10781;50.928;4.440;2023-09-08T00:43:14;23.30;99.90
21246;DHT22;10781;50.928;4.440;2023-09-08T00:45:42;23.40;99.90
21246;DHT22;10781;50.928;4.440;2023-09-08T00:48:08;23.80;99.90
21246;DHT22;10781;50.928;4.440;2023-09-08T00:50:36;23.90;99.90
21246;DHT22;10781;50.928;4.440;2023-09-08T00:53:02;23.90;99.90
21246;DHT22;10781;50.928;4.440;2023-09-08T00:55:29;24.10;99.90
21246;DHT22;10781;50.928;4.440;2023-09-08T00:57:55;24.10;99.90
21246;DHT22;10781;50.928;4.440;2023-09-08T01:00:20;23.90;99.90
21246;DHT22;10781;50.928;4.440;2023-09-08T01:02:46;23.90;99.90
21246;DHT22;10781;50.928;4.440;2023-09-08T01:05:12;23.70;99.90
21246;DHT22;10781;50.928;4.440;2023-09-08T01:07:39;23.40;99.90
21246;DHT22;10781;50.928;4.440;2023-09-08T01:10:06;23.40;99.90
21246;DHT22;10781;50.928;4.440;2023-09-08T01:12:32;23.50;99.90
21246;DHT22;10781;50.928;4.440;2023-09-08T01:15:00;23.70;99.90
21246;DHT22;10781;50.928;4.440;2023-09-08T01:17:26;23.80;99.90
21246;DHT22;10781;50.928;4.440;2023-09-08T01:19:55;23.70;99.90
21246;DHT22;10781;50.928;4.440;2023-09-08T01:25:24;23.40;99.90
21246;DHT22;10781;50.928;4.440;2023-09-08T01:27:54;23.50;99.90
21246;DHT22;10781;50.928;4.440;2023-09-08T01:30:21;23.50;99.90
21246;DHT22;10781;50.928;4.440;2023-09-08T01:32:49;23.40;99.90
21246;DHT22;10781;50.928;4.440;2023-09-08T01:35:15;23.50;99.90
21246;DHT22;10781;50.928;4.440;2023-09-08T01:37:45;23.50;99.90
21246;DHT22;10781;50.928;4.440;2023-09-08T01:40:11;23.40;99.90
21246;DHT22;10781;50.928;4.440;2023-09-08T01:42:38;23.50;99.90
21246;DHT22;10781;50.928;4.440;2023-09-08T01:45:04;23.40;99.90
21246;DHT22;10781;50.928;4.440;2023-09-08T01:47:30;23.40;99.90
21246;DHT22;10781;50.928;4.440;2023-09-08T01:49:56;23.50;99.90
21246;DHT22;10781;50.928;4.440;2023-09-08T01:52:22;23.50;99.90
21246;DHT22;10781;50.928;4.440;2023-09-08T01:54:48;23.30;99.90
21246;DHT22;10781;50.928;4.440;2023-09-08T01:57:13;23.30;99.90
21246;DHT22;10781;50.928;4.440;2023-09-08T01:59:39;23.30;99.90
21246;DHT22;10781;50.928;4.440;2023-09-08T02:02:05;23.30;99.90
21246;DHT22;10781;50.928;4.440;2023-09-08T02:04:31;23.20;99.90
21246;DHT22;10781;50.928;4.440;2023-09-08T02:06:57;23.30;99.90
21246;DHT22;10781;50.928;4.440;2023-09-08T02:09:31;23.20;99.90
21246;DHT22;10781;50.928;4.440;2023-09-08T02:11:56;23.10;99.90
21246;DHT22;10781;50.928;4.440;2023-09-08T02:14:22;23.20;99.90
21246;DHT22;10781;50.928;4.440;2023-09-08T02:16:47;23.30;99.90
21246;DHT22;10781;50.928;4.440;2023-09-08T02:19:13;23.20;99.90
21246;DHT22;10781;50.928;4.440;2023-09-08T02:21:39;23.10;99.90
21246;DHT22;10781;50.928;4.440;2023-09-08T02:24:04;23.00;99.90
21246;DHT22;10781;50.928;4.440;2023-09-08T02:26:30;23.10;99.90
21246;DHT22;10781;50.928;4.440;2023-09-08T02:28:58;23.00;99.90
21246;DHT22;10781;50.928;4.440;2023-09-08T02:31:24;23.00;99.90
21246;DHT22;10781;50.928;4.440;2023-09-08T02:33:50;22.90;99.90
21246;DHT22;10781;50.928;4.440;2023-09-08T02:36:15;22.90;99.90
21246;DHT22;10781;50.928;4.440;2023-09-08T02:38:41;22.90;99.90
21246;DHT22;10781;50.928;4.440;2023-09-08T02:41:06;23.00;99.90
21246;DHT22;10781;50.928;4.440;2023-09-08T02:43:32;23.10;99.90
21246;DHT22;10781;50.928;4.440;2023-09-08T02:45:57;23.10;99.90
21246;DHT22;10781;50.928;4.440;2023-09-08T02:48:24;23.00;99.90
21246;DHT22;10781;50.928;4.440;2023-09-08T02:50:50;22.90;99.90
21246;DHT22;10781;50.928;4.440;2023-09-08T02:53:16;22.70;99.90
21246;DHT22;10781;50.928;4.440;2023-09-08T02:55:41;22.70;99.90
21246;DHT22;10781;50.928;4.440;2023-09-08T02:58:07;22.80;99.90
21246;DHT22;10781;50.928;4.440;2023-09-08T03:00:32;22.80;99.90
21246;DHT22;10781;50.928;4.440;2023-09-08T03:02:58;22.80;99.90
21246;DHT22;10781;50.928;4.440;2023-09-08T03:05:24;22.80;99.90
21246;DHT22;10781;50.928;4.440;2023-09-08T03:07:49;22.70;99.90
21246;DHT22;10781;50.928;4.440;2023-09-08T03:10:15;22.60;99.90
21246;DHT22;10781;50.928;4.440;2023-09-08T03:12:41;22.50;99.90
21246;DHT22;10781;50.928;4.440;2023-09-08T03:15:07;22.50;99.90
21246;DHT22;10781;50.928;4.440;2023-09-08T03:17:33;22.40;99.90
21246;DHT22;10781;50.928;4.440;2023-09-08T03:19:59;22.50;99.90
21246;DHT22;10781;50.928;4.440;2023-09-08T03:22:25;22.50;99.90
21246;DHT22;10781;50.928;4.440;2023-09-08T03:24:50;22.50;99.90
21246;DHT22;10781;50.928;4.440;2023-09-08T03:27:16;22.40;99.90
21246;DHT22;10781;50.928;4.440;2023-09-08T03:29:42;22.50;99.90
21246;DHT22;10781;50.928;4.440;2023-09-08T03:32:07;22.50;99.90
21246;DHT22;10781;50.928;4.440;2023-09-08T03:34:33;22.60;99.90
21246;DHT22;10781;50.928;4.440;2023-09-08T03:36:59;22.60;99.90
21246;DHT22;10781;50.928;4.440;2023-09-08T03:39:25;22.40;99.90
21246;DHT22;10781;50.928;4.440;2023-09-08T03:41:50;22.30;99.90
21246;DHT22;10781;50.928;4.440;2023-09-08T03:44:16;22.20;99.90
21246;DHT22;10781;50.928;4.440;2023-09-08T03:46:41;22.00;99.90
21246;DHT22;10781;50.928;4.440;2023-09-08T03:49:08;22.00;99.90
21246;DHT22;10781;50.928;4.440;2023-09-08T03:51:34;22.10;99.90
21246;DHT22;10781;50.928;4.440;2023-09-08T03:53:59;22.30;99.90
21246;DHT22;10781;50.928;4.440;2023-09-08T03:56:25;22.40;99.90
21246;DHT22;10781;50.928;4.440;2023-09-08T03:58:51;22.40;99.90
21246;DHT22;10781;50.928;4.440;2023-09-08T04:01:17;22.40;99.90
21246;DHT22;10781;50.928;4.440;2023-09-08T04:03:42;22.40;99.90
21246;DHT22;10781;50.928;4.440;2023-09-08T04:06:09;22.40;99.90
21246;DHT22;10781;50.928;4.440;2023-09-08T04:08:34;22.40;99.90
21246;DHT22;10781;50.928;4.440;2023-09-08T04:11:00;22.20;99.90
21246;DHT22;10781;50.928;4.440;2023-09-08T04:13:26;22.20;99.90
21246;DHT22;10781;50.928;4.440;2023-09-08T04:15:51;22.20;99.90
21246;DHT22;10781;50.928;4.440;2023-09-08T04:18:17;22.30;99.90
21246;DHT22;10781;50.928;4.440;2023-09-08T04:20:43;22.20;99.90
21246;DHT22;10781;50.928;4.440;2023-09-08T04:23:08;22.10;99.90
21246;DHT22;10781;50.928;4.440;2023-09-08T04:25:34;22.10;99.90
21246;DHT22;10781;50.928;4.440;2023-09-08T04:28:02;22.20;99.90
21246;DHT22;10781;50.928;4.440;2023-09-08T04:30:27;22.10;99.90
21246;DHT22;10781;50.928;4.440;2023-09-08T04:32:53;22.00;99.90
21246;DHT22;10781;50.928;4.440;2023-09-08T04:35:19;22.10;99.90
21246;DHT22;10781;50.928;4.440;2023-09-08T04:37:44;22.10;99.90
21246;DHT22;10781;50.928;4.440;2023-09-08T04:40:10;22.10;99.90
21246;DHT22;10781;50.928;4.440;2023-09-08T04:42:35;22.00;99.90
21246;DHT22;10781;50.928;4.440;2023-09-08T04:45:01;21.90;99.90
21246;DHT22;10781;50.928;4.440;2023-09-08T04:47:27;22.10;99.90
21246;DHT22;10781;50.928;4.440;2023-09-08T04:49:52;21.90;99.90
21246;DHT22;10781;50.928;4.440;2023-09-08T04:52:18;21.80;99.90
21246;DHT22;10781;50.928;4.440;2023-09-08T04:54:44;21.90;99.90
21246;DHT22;10781;50.928;4.440;2023-09-08T04:57:09;21.90;99.90
21246;DHT22;10781;50.928;4.440;2023-09-08T04:59:35;21.90;99.90
21246;DHT22;10781;50.928;4.440;2023-09-08T05:02:02;21.90;99.90
21246;DHT22;10781;50.928;4.440;2023-09-08T05:04:28;21.90;99.90
21246;DHT22;10781;50.928;4.440;2023-09-08T05:06:54;21.80;99.90
21246;DHT22;10781;50.928;4.440;2023-09-08T05:09:19;21.80;99.90
21246;DHT22;10781;50.928;4.440;2023-09-08T05:11:45;21.90;99.90
21246;DHT22;10781;50.928;4.440;2023-09-08T05:14:10;21.80;99.90
21246;DHT22;10781;50.928;4.440;2023-09-08T05:16:36;21.90;99.90
21246;DHT22;10781;50.928;4.440;2023-09-08T05:19:06;21.90;99.90
21246;DHT22;10781;50.928;4.440;2023-09-08T05:21:33;21.80;99.90
21246;DHT22;10781;50.928;4.440;2023-09-08T05:23:59;21.70;99.90
21246;DHT22;10781;50.928;4.440;2023-09-08T05:26:24;21.70;99.90
21246;DHT22;10781;50.928;4.440;2023-09-08T05:28:50;21.70;99.90
21246;DHT22;10781;50.928;4.440;2023-09-08T05:31:16;21.70;99.90
21246;DHT22;10781;50.928;4.440;2023-09-08T05:33:41;21.70;99.90
21246;DHT22;10781;50.928;4.440;2023-09-08T05:36:07;21.60;99.90
21246;DHT22;10781;50.928;4.440;2023-09-08T05:38:33;21.60;99.90
21246;DHT22;10781;50.928;4.440;2023-09-08T05:40:58;21.80;99.90
21246;DHT22;10781;50.928;4.440;2023-09-08T05:43:25;21.60;99.90
21246;DHT22;10781;50.928;4.440;2023-09-08T05:45:50;21.80;99.90
21246;DHT22;10781;50.928;4.440;2023-09-08T05:48:16;21.70;99.90
21246;DHT22;10781;50.928;4.440;2023-09-08T05:50:42;21.90;99.90
21246;DHT22;10781;50.928;4.440;2023-09-08T05:53:08;21.80;99.90
21246;DHT22;10781;50.928;4.440;2023-09-08T05:55:33;21.70;99.90
21246;DHT22;10781;50.928;4.440;2023-09-08T05:57:59;21.80;99.90
21246;DHT22;10781;50.928;4.440;2023-09-08T06:00:24;21.80;99.90
21246;DHT22;10781;50.928;4.440;2023-09-08T06:02:50;21.90;99.90
21246;DHT22;10781;50.928;4.440;2023-09-08T06:05:16;21.80;99.90
21246;DHT22;10781;50.928;4.440;2023-09-08T06:07:42;21.90;99.90
21246;DHT22;10781;50.928;4.440;2023-09-08T06:10:07;21.90;99.90
21246;DHT22;10781;50.928;4.440;2023-09-08T06:12:33;22.00;99.90
21246;DHT22;10781;50.928;4.440;2023-09-08T06:14:59;22.20;99.90
21246;DHT22;10781;50.928;4.440;2023-09-08T06:17:25;22.20;99.90
21246;DHT22;10781;50.928;4.440;2023-09-08T06:19:50;22.70;99.90
21246;DHT22;10781;50.928;4.440;2023-09-08T06:22:16;23.70;99.90
21246;DHT22;10781;50.928;4.440;2023-09-08T06:24:41;24.80;99.90
21246;DHT22;10781;50.928;4.440;2023-09-08T06:27:07;25.80;99.90
21246;DHT22;10781;50.928;4.440;2023-09-08T06:29:33;26.50;99.90
21246;DHT22;10781;50.928;4.440;2023-09-08T06:31:59;27.10;99.90
21246;DHT22;10781;50.928;4.440;2023-09-08T06:34:24;27.70;99.90
21246;DHT22;10781;50.928;4.440;2023-09-08T06:36:50;28.20;99.90
21246;DHT22;10781;50.928;4.440;2023-09-08T06:39:15;28.80;99.90
21246;DHT22;10781;50.928;4.440;2023-09-08T06:41:41;29.20;99.90
21246;DHT22;10781;50.928;4.440;2023-09-08T06:44:07;29.70;99.90
21246;DHT22;10781;50.928;4.440;2023-09-08T06:46:32;30.10;99.90
21246;DHT22;10781;50.928;4.440;2023-09-08T06:48:58;30.50;99.90
21246;DHT22;10781;50.928;4.440;2023-09-08T06:51:24;30.90;99.90
21246;DHT22;10781;50.928;4.440;2023-09-08T06:53:57;31.20;99.90
21246;DHT22;10781;50.928;4.440;2023-09-08T06:56:22;31.70;99.90
21246;DHT22;10781;50.928;4.440;2023-09-08T06:58:48;32.30;99.90
21246;DHT22;10781;50.928;4.440;2023-09-08T07:01:14;32.80;99.90
21246;DHT22;10781;50.928;4.440;2023-09-08T07:03:39;32.90;99.90
21246;DHT22;10781;50.928;4.440;2023-09-08T07:06:05;33.30;99.90
21246;DHT22;10781;50.928;4.440;2023-09-08T07:08:30;33.60;99.90
21246;DHT22;10781;50.928;4.440;2023-09-08T07:10:56;34.10;99.90
21246;DHT22;10781;50.928;4.440;2023-09-08T07:13:22;34.40;99.90
21246;DHT22;10781;50.928;4.440;2023-09-08T07:15:47;34.80;99.90
21246;DHT22;10781;50.928;4.440;2023-09-08T07:18:13;35.00;99.90
21246;DHT22;10781;50.928;4.440;2023-09-08T07:20:38;35.20;99.90
21246;DHT22;10781;50.928;4.440;2023-09-08T07:23:06;35.50;99.90
21246;DHT22;10781;50.928;4.440;2023-09-08T07:25:32;36.00;99.90
21246;DHT22;10781;50.928;4.440;2023-09-08T07:27:57;35.80;99.90
21246;DHT22;10781;50.928;4.440;2023-09-08T07:30:23;36.40;99.80
21246;DHT22;10781;50.928;4.440;2023-09-08T07:32:48;37.00;98.60
21246;DHT22;10781;50.928;4.440;2023-09-08T07:35:14;36.60;97.10
21246;DHT22;10781;50.928;4.440;2023-09-08T07:37:42;36.90;97.00
21246;DHT22;10781;50.928;4.440;2023-09-08T07:40:09;37.40;95.60
21246;DHT22;10781;50.928;4.440;2023-09-08T07:42:35;37.70;95.00
21246;DHT22;10781;50.928;4.440;2023-09-08T07:45:01;38.40;92.70
21246;DHT22;10781;50.928;4.440;2023-09-08T07:47:26;38.90;91.30
21246;DHT22;10781;50.928;4.440;2023-09-08T07:49:52;39.10;88.40
21246;DHT22;10781;50.928;4.440;2023-09-08T07:52:37;39.20;87.40
21246;DHT22;10781;50.928;4.440;2023-09-08T07:55:03;39.60;84.60
21246;DHT22;10781;50.928;4.440;2023-09-08T07:57:29;38.90;83.60
21246;DHT22;10781;50.928;4.440;2023-09-08T07:59:54;39.20;83.50
21246;DHT22;10781;50.928;4.440;2023-09-08T08:02:20;39.90;83.10
21246;DHT22;10781;50.928;4.440;2023-09-08T08:04:46;40.60;80.50
21246;DHT22;10781;50.928;4.440;2023-09-08T08:07:11;41.10;76.80
21246;DHT22;10781;50.928;4.440;2023-09-08T08:09:37;41.80;74.20
21246;DHT22;10781;50.928;4.440;2023-09-08T08:12:03;42.00;72.40
21246;DHT22;10781;50.928;4.440;2023-09-08T08:14:28;42.00;70.80
21246;DHT22;10781;50.928;4.440;2023-09-08T08:16:54;41.60;68.90
21246;DHT22;10781;50.928;4.440;2023-09-08T08:19:19;42.10;69.70
21246;DHT22;10781;50.928;4.440;2023-09-08T08:21:45;42.00;67.30
21246;DHT22;10781;50.928;4.440;2023-09-08T08:24:11;42.80;66.90
21246;DHT22;10781;50.928;4.440;2023-09-08T08:26:36;43.00;65.50
21246;DHT22;10781;50.928;4.440;2023-09-08T08:29:02;42.80;64.30
21246;DHT22;10781;50.928;4.440;2023-09-08T08:31:28;42.80;65.40
21246;DHT22;10781;50.928;4.440;2023-09-08T08:33:54;42.60;63.90
21246;DHT22;10781;50.928;4.440;2023-09-08T08:36:20;43.00;63.70
21246;DHT22;10781;50.928;4.440;2023-09-08T08:38:45;43.90;62.50
21246;DHT22;10781;50.928;4.440;2023-09-08T08:41:11;44.70;60.60
21246;DHT22;10781;50.928;4.440;2023-09-08T08:43:37;45.20;59.20
21246;DHT22;10781;50.928;4.440;2023-09-08T08:46:03;45.10;57.80
21246;DHT22;10781;50.928;4.440;2023-09-08T08:48:29;45.20;56.50
21246;DHT22;10781;50.928;4.440;2023-09-08T08:50:57;45.20;57.20
21246;DHT22;10781;50.928;4.440;2023-09-08T08:53:25;45.30;56.20
21246;DHT22;10781;50.928;4.440;2023-09-08T08:55:55;45.30;55.60
21246;DHT22;10781;50.928;4.440;2023-09-08T08:58:22;45.10;55.60
21246;DHT22;10781;50.928;4.440;2023-09-08T09:00:52;45.60;54.60
21246;DHT22;10781;50.928;4.440;2023-09-08T09:03:20;46.10;54.30
21246;DHT22;10781;50.928;4.440;2023-09-08T09:05:46;46.20;53.60
21246;DHT22;10781;50.928;4.440;2023-09-08T09:08:13;46.20;53.00
21246;DHT22;10781;50.928;4.440;2023-09-08T09:10:38;46.40;51.80
21246;DHT22;10781;50.928;4.440;2023-09-08T09:13:04;46.60;51.70
21246;DHT22;10781;50.928;4.440;2023-09-08T09:15:31;46.90;51.00
21246;DHT22;10781;50.928;4.440;2023-09-08T09:18:04;46.90;51.00
21246;DHT22;10781;50.928;4.440;2023-09-08T09:20:30;46.00;51.30
21246;DHT22;10781;50.928;4.440;2023-09-08T09:22:56;46.70;51.70
21246;DHT22;10781;50.928;4.440;2023-09-08T09:25:27;47.50;49.80
21246;DHT22;10781;50.928;4.440;2023-09-08T09:28:02;48.20;48.80
21246;DHT22;10781;50.928;4.440;2023-09-08T09:30:47;48.20;48.20
21246;DHT22;10781;50.928;4.440;2023-09-08T09:33:13;46.90;48.40
21246;DHT22;10781;50.928;4.440;2023-09-08T09:38:09;47.90;47.80
21246;DHT22;10781;50.928;4.440;2023-09-08T09:40:35;48.30;48.70
21246;DHT22;10781;50.928;4.440;2023-09-08T09:43:00;49.10;46.90
21246;DHT22;10781;50.928;4.440;2023-09-08T09:45:26;48.60;46.10
21246;DHT22;10781;50.928;4.440;2023-09-08T09:47:52;46.50;46.60
21246;DHT22;10781;50.928;4.440;2023-09-08T09:50:39;45.90;48.00
21246;DHT22;10781;50.928;4.440;2023-09-08T09:53:14;47.00;48.00
21246;DHT22;10781;50.928;4.440;2023-09-08T09:55:41;47.30;47.10
21246;DHT22;10781;50.928;4.440;2023-09-08T09:58:08;47.30;48.10
21246;DHT22;10781;50.928;4.440;2023-09-08T10:00:36;48.00;47.50
21246;DHT22;10781;50.928;4.440;2023-09-08T10:03:04;48.50;46.00
21246;DHT22;10781;50.928;4.440;2023-09-08T10:05:30;47.30;46.00
21246;DHT22;10781;50.928;4.440;2023-09-08T10:07:56;48.00;46.90
21246;DHT22;10781;50.928;4.440;2023-09-08T10:10:22;48.70;45.50
21246;DHT22;10781;50.928;4.440;2023-09-08T10:12:57;49.00;45.90
21246;DHT22;10781;50.928;4.440;2023-09-08T10:15:26;49.60;45.40
21246;DHT22;10781;50.928;4.440;2023-09-08T10:17:54;49.90;43.30
21246;DHT22;10781;50.928;4.440;2023-09-08T10:20:24;49.90;42.50
21246;DHT22;10781;50.928;4.440;2023-09-08T10:22:54;49.50;43.20
21246;DHT22;10781;50.928;4.440;2023-09-08T10:25:23;49.20;43.60
21246;DHT22;10781;50.928;4.440;2023-09-08T10:27:50;49.70;43.10
21246;DHT22;10781;50.928;4.440;2023-09-08T10:30:16;48.60;44.10
21246;DHT22;10781;50.928;4.440;2023-09-08T10:32:43;48.60;44.90
21246;DHT22;10781;50.928;4.440;2023-09-08T10:35:09;49.10;44.20
21246;DHT22;10781;50.928;4.440;2023-09-08T10:37:35;49.50;44.30
21246;DHT22;10781;50.928;4.440;2023-09-08T10:40:24;50.20;43.20
21246;DHT22;10781;50.928;4.440;2023-09-08T10:43:08;48.70;43.50
21246;DHT22;10781;50.928;4.440;2023-09-08T10:45:35;48.90;45.30
21246;DHT22;10781;50.928;4.440;2023-09-08T10:48:01;49.50;43.00
21246;DHT22;10781;50.928;4.440;2023-09-08T10:50:39;49.20;43.90
21246;DHT22;10781;50.928;4.440;2023-09-08T10:53:18;49.50;43.40
21246;DHT22;10781;50.928;4.440;2023-09-08T10:55:52;48.30;43.70
21246;DHT22;10781;50.928;4.440;2023-09-08T10:58:35;48.30;44.40
21246;DHT22;10781;50.928;4.440;2023-09-08T11:01:04;48.60;44.70
21246;DHT22;10781;50.928;4.440;2023-09-08T11:06:03;49.30;43.30
21246;DHT22;10781;50.928;4.440;2023-09-08T11:08:29;50.50;41.80
21246;DHT22;10781;50.928;4.440;2023-09-08T11:10:55;48.90;42.40
21246;DHT22;10781;50.928;4.440;2023-09-08T11:13:22;49.20;43.20
21246;DHT22;10781;50.928;4.440;2023-09-08T11:15:50;49.00;43.30
21246;DHT22;10781;50.928;4.440;2023-09-08T11:18:16;47.80;41.20
21246;DHT22;10781;50.928;4.440;2023-09-08T11:20:41;46.80;42.80
21246;DHT22;10781;50.928;4.440;2023-09-08T11:23:10;47.30;41.40
21246;DHT22;10781;50.928;4.440;2023-09-08T11:25:35;48.90;40.80
21246;DHT22;10781;50.928;4.440;2023-09-08T11:28:01;49.90;38.60
21246;DHT22;10781;50.928;4.440;2023-09-08T11:30:28;50.60;39.80
21246;DHT22;10781;50.928;4.440;2023-09-08T11:32:53;50.60;39.20
21246;DHT22;10781;50.928;4.440;2023-09-08T11:35:19;51.40;38.90
21246;DHT22;10781;50.928;4.440;2023-09-08T11:37:46;51.20;37.30
21246;DHT22;10781;50.928;4.440;2023-09-08T11:40:12;51.00;37.10
21246;DHT22;10781;50.928;4.440;2023-09-08T11:42:43;51.20;36.90
21246;DHT22;10781;50.928;4.440;2023-09-08T11:45:15;51.20;37.50
21246;DHT22;10781;50.928;4.440;2023-09-08T11:47:43;49.10;37.40
21246;DHT22;10781;50.928;4.440;2023-09-08T11:50:13;49.60;40.20
21246;DHT22;10781;50.928;4.440;2023-09-08T11:52:49;50.10;37.90
21246;DHT22;10781;50.928;4.440;2023-09-08T11:55:15;50.90;37.10
21246;DHT22;10781;50.928;4.440;2023-09-08T11:57:43;51.70;36.50
21246;DHT22;10781;50.928;4.440;2023-09-08T12:00:10;50.90;35.80
21246;DHT22;10781;50.928;4.440;2023-09-08T12:02:40;51.60;36.40
21246;DHT22;10781;50.928;4.440;2023-09-08T12:05:10;51.60;35.90
21246;DHT22;10781;50.928;4.440;2023-09-08T12:07:37;51.80;37.10
21246;DHT22;10781;50.928;4.440;2023-09-08T12:10:10;51.70;35.80
21246;DHT22;10781;50.928;4.440;2023-09-08T12:12:55;51.50;35.40
21246;DHT22;10781;50.928;4.440;2023-09-08T12:15:41;51.40;35.10
21246;DHT22;10781;50.928;4.440;2023-09-08T12:18:12;51.40;35.20
21246;DHT22;10781;50.928;4.440;2023-09-08T12:20:40;50.90;35.30
21246;DHT22;10781;50.928;4.440;2023-09-08T12:28:11;50.40;36.10
21246;DHT22;10781;50.928;4.440;2023-09-08T12:30:38;50.30;35.60
21246;DHT22;10781;50.928;4.440;2023-09-08T12:33:04;50.00;36.00
21246;DHT22;10781;50.928;4.440;2023-09-08T12:35:30;49.90;36.00
21246;DHT22;10781;50.928;4.440;2023-09-08T12:38:01;50.30;35.70
21246;DHT22;10781;50.928;4.440;2023-09-08T12:40:28;50.00;35.20
21246;DHT22;10781;50.928;4.440;2023-09-08T12:42:54;48.90;36.60
21246;DHT22;10781;50.928;4.440;2023-09-08T12:45:22;48.70;36.20
21246;DHT22;10781;50.928;4.440;2023-09-08T12:47:51;49.10;37.10
21246;DHT22;10781;50.928;4.440;2023-09-08T12:50:17;49.00;36.90
21246;DHT22;10781;50.928;4.440;2023-09-08T12:52:42;49.20;36.70
21246;DHT22;10781;50.928;4.440;2023-09-08T12:55:08;49.20;36.80
21246;DHT22;10781;50.928;4.440;2023-09-08T12:57:35;49.00;36.70
21246;DHT22;10781;50.928;4.440;2023-09-08T13:00:04;48.60;37.50
21246;DHT22;10781;50.928;4.440;2023-09-08T13:02:30;48.40;37.60
21246;DHT22;10781;50.928;4.440;2023-09-08T13:04:56;47.50;37.30
21246;DHT22;10781;50.928;4.440;2023-09-08T13:07:22;47.50;38.70
21246;DHT22;10781;50.928;4.440;2023-09-08T13:09:47;47.70;38.10
21246;DHT22;10781;50.928;4.440;2023-09-08T13:12:13;48.10;38.30
21246;DHT22;10781;50.928;4.440;2023-09-08T13:14:39;47.60;38.00
21246;DHT22;10781;50.928;4.440;2023-09-08T13:17:05;48.00;39.70
21246;DHT22;10781;50.928;4.440;2023-09-08T13:19:32;48.40;39.80
21246;DHT22;10781;50.928;4.440;2023-09-08T13:21:58;48.80;38.80
21246;DHT22;10781;50.928;4.440;2023-09-08T13:24:23;48.90;38.40
21246;DHT22;10781;50.928;4.440;2023-09-08T13:26:49;49.80;38.00
21246;DHT22;10781;50.928;4.440;2023-09-08T13:29:16;49.70;38.10
21246;DHT22;10781;50.928;4.440;2023-09-08T13:31:41;49.50;38.60
21246;DHT22;10781;50.928;4.440;2023-09-08T13:34:07;48.90;38.20
21246;DHT22;10781;50.928;4.440;2023-09-08T13:36:33;48.60;38.30
21246;DHT22;10781;50.928;4.440;2023-09-08T13:38:58;47.50;38.70
21246;DHT22;10781;50.928;4.440;2023-09-08T13:41:24;47.80;40.80
21246;DHT22;10781;50.928;4.440;2023-09-08T13:43:50;48.00;39.20
21246;DHT22;10781;50.928;4.440;2023-09-08T13:46:16;47.70;40.00
21246;DHT22;10781;50.928;4.440;2023-09-08T13:48:42;48.40;40.60
21246;DHT22;10781;50.928;4.440;2023-09-08T13:51:08;48.50;39.60
21246;DHT22;10781;50.928;4.440;2023-09-08T13:53:33;48.60;39.20
21246;DHT22;10781;50.928;4.440;2023-09-08T13:56:00;48.50;38.90
21246;DHT22;10781;50.928;4.440;2023-09-08T13:58:26;48.00;40.50
21246;DHT22;10781;50.928;4.440;2023-09-08T14:00:52;48.10;40.50
21246;DHT22;10781;50.928;4.440;2023-09-08T14:03:18;47.90;40.20
21246;DHT22;10781;50.928;4.440;2023-09-08T14:05:44;47.70;40.60
21246;DHT22;10781;50.928;4.440;2023-09-08T14:08:09;47.10;40.50
21246;DHT22;10781;50.928;4.440;2023-09-08T14:10:35;46.80;42.60
21246;DHT22;10781;50.928;4.440;2023-09-08T14:13:01;46.00;42.90
21246;DHT22;10781;50.928;4.440;2023-09-08T14:15:27;45.70;41.90
21246;DHT22;10781;50.928;4.440;2023-09-08T14:17:52;46.00;42.90
21246;DHT22;10781;50.928;4.440;2023-09-08T14:20:18;46.00;42.20
21246;DHT22;10781;50.928;4.440;2023-09-08T14:22:44;45.70;41.50
21246;DHT22;10781;50.928;4.440;2023-09-08T14:25:10;45.90;43.00
21246;DHT22;10781;50.928;4.440;2023-09-08T14:27:36;46.00;41.70
21246;DHT22;10781;50.928;4.440;2023-09-08T14:30:03;45.60;41.80
21246;DHT22;10781;50.928;4.440;2023-09-08T14:32:29;45.30;43.10
21246;DHT22;10781;50.928;4.440;2023-09-08T14:34:55;45.20;43.60
21246;DHT22;10781;50.928;4.440;2023-09-08T14:37:22;45.60;44.30
21246;DHT22;10781;50.928;4.440;2023-09-08T14:39:48;45.20;43.20
21246;DHT22;10781;50.928;4.440;2023-09-08T14:42:13;44.90;43.80
21246;DHT22;10781;50.928;4.440;2023-09-08T14:44:41;44.50;44.40
21246;DHT22;10781;50.928;4.440;2023-09-08T14:47:06;44.30;44.70
21246;DHT22;10781;50.928;4.440;2023-09-08T14:49:32;44.10;44.90
21246;DHT22;10781;50.928;4.440;2023-09-08T14:51:58;44.50;44.70
21246;DHT22;10781;50.928;4.440;2023-09-08T14:54:24;44.50;44.40
21246;DHT22;10781;50.928;4.440;2023-09-08T14:56:51;44.40;44.80
21246;DHT22;10781;50.928;4.440;2023-09-08T14:59:16;44.50;45.00
21246;DHT22;10781;50.928;4.440;2023-09-08T15:01:42;44.90;45.40
21246;DHT22;10781;50.928;4.440;2023-09-08T15:04:10;44.60;44.00
21246;DHT22;10781;50.928;4.440;2023-09-08T15:06:36;44.60;44.70
21246;DHT22;10781;50.928;4.440;2023-09-08T15:09:02;44.60;44.60
21246;DHT22;10781;50.928;4.440;2023-09-08T15:11:28;44.50;45.40
21246;DHT22;10781;50.928;4.440;2023-09-08T15:13:53;44.30;45.20
21246;DHT22;10781;50.928;4.440;2023-09-08T15:16:20;43.90;46.00
21246;DHT22;10781;50.928;4.440;2023-09-08T15:18:46;43.80;46.60
21246;DHT22;10781;50.928;4.440;2023-09-08T15:21:12;43.50;46.80
21246;DHT22;10781;50.928;4.440;2023-09-08T15:23:38;43.40;47.20
21246;DHT22;10781;50.928;4.440;2023-09-08T15:26:03;43.00;47.40
21246;DHT22;10781;50.928;4.440;2023-09-08T15:28:29;43.20;47.90
21246;DHT22;10781;50.928;4.440;2023-09-08T15:30:55;43.40;48.00
21246;DHT22;10781;50.928;4.440;2023-09-08T15:33:21;43.60;47.80
21246;DHT22;10781;50.928;4.440;2023-09-08T15:35:48;43.40;46.70
21246;DHT22;10781;50.928;4.440;2023-09-08T15:38:14;43.20;48.40
21246;DHT22;10781;50.928;4.440;2023-09-08T15:43:28;43.00;48.30